createdAt,value
2024-01-06T00:04:01.040Z,8.7898
2024-01-06T00:09:07.452Z,6.4596
2024-01-06T00:14:13.764Z,9.2079
2024-01-06T00:19:20.538Z,6.9071
2024-01-06T00:24:27.170Z,5.567
2024-01-06T00:29:33.691Z,8.5192
2024-01-06T00:34:40.319Z,6.6965
2024-01-06T00:39:47.265Z,7.8049
2024-01-06T00:44:53.350Z,5.3942
2024-01-06T00:49:59.960Z,5.6311
2024-01-06T00:55:06.557Z,5.996
2024-01-06T01:00:13.153Z,7.6967
2024-01-06T01:05:19.888Z,8.459
2024-01-06T01:10:26.641Z,6.6604
2024-01-06T01:15:33.294Z,8.0722
2024-01-06T01:20:39.921Z,4.3489
2024-01-06T01:25:46.296Z,7.4449
2024-01-06T01:30:53.158Z,6.2339
2024-01-06T01:36:02.661Z,5.4306
2024-01-06T01:41:06.176Z,10.0872
2024-01-06T01:46:12.713Z,5.8775
2024-01-06T01:51:19.384Z,7.504
2024-01-06T01:56:26.137Z,3.3694
2024-01-06T02:01:32.695Z,5.559
2024-01-06T02:06:39.323Z,5.1081
2024-01-06T02:11:45.928Z,3.6266
2024-01-06T02:16:52.616Z,4.7347
2024-01-06T02:21:59.352Z,4.557
2024-01-06T02:27:06.134Z,5.8532
2024-01-06T02:32:12.808Z,6.7704
2024-01-06T02:37:19.127Z,8.5445
2024-01-06T02:42:25.912Z,9.1882
2024-01-06T02:47:32.349Z,6.7175
2024-01-06T02:52:39.000Z,5.8665
2024-01-06T02:57:45.925Z,6.6294
2024-01-06T03:02:52.846Z,6.7726
2024-01-06T03:02:55.068Z,6.7726
2024-01-06T03:08:01.456Z,7.0076
2024-01-06T03:13:08.244Z,14.2032
2024-01-06T03:18:15.478Z,3.1848
2024-01-06T03:23:21.861Z,10.9537
2024-01-06T03:28:28.574Z,5.9179
2024-01-06T03:33:35.370Z,4.5274
2024-01-06T03:38:41.972Z,5.1075
2024-01-06T03:43:48.388Z,6.4471
2024-01-06T03:48:55.139Z,6.9104
2024-01-06T03:54:01.873Z,14.6168
2024-01-06T03:59:08.492Z,6.2044
2024-01-06T04:04:15.629Z,5.7876
2024-01-06T04:09:22.113Z,6.252
2024-01-06T04:14:28.739Z,7.1636
2024-01-06T04:19:35.684Z,6.1326
2024-01-06T04:24:42.146Z,5.7648
2024-01-06T04:29:48.645Z,4.7025
2024-01-06T04:34:55.110Z,6.8232
2024-01-06T04:40:02.072Z,10.7599
2024-01-06T04:45:08.978Z,6.2688
2024-01-06T04:50:15.825Z,9.1488
2024-01-06T04:55:22.546Z,6.4701
2024-01-06T05:00:29.389Z,6.2647
2024-01-06T05:05:36.211Z,8.7467
2024-01-06T05:10:42.677Z,5.7966
2024-01-06T05:15:49.531Z,9.9116
2024-01-06T05:20:56.097Z,6.9549
2024-01-06T05:26:02.912Z,9.9622
2024-01-06T05:31:09.294Z,4.3897
2024-01-06T05:36:15.647Z,5.1571
2024-01-06T05:41:22.123Z,7.5095
2024-01-06T05:46:29.037Z,6.6559
2024-01-06T05:51:35.656Z,3.4878
2024-01-06T05:56:42.353Z,7.4252
2024-01-06T06:01:49.148Z,5.2344
2024-01-06T06:06:57.326Z,6.4527
2024-01-06T06:12:02.704Z,3.8074
2024-01-06T06:17:09.319Z,4.4447
2024-01-06T06:22:16.086Z,6.5098
2024-01-06T06:27:23.016Z,5.5547
2024-01-06T06:32:29.830Z,5.0559
2024-01-06T06:37:36.009Z,11.087
2024-01-06T06:42:42.513Z,6.6596
2024-01-06T06:47:49.141Z,3.4012
2024-01-06T06:52:55.562Z,5.6429
2024-01-06T06:58:02.412Z,6.4265
2024-01-06T07:03:09.363Z,6.0929
2024-01-06T07:08:15.949Z,5.6041
2024-01-06T07:13:22.564Z,5.5718
2024-01-06T07:18:29.507Z,6.4691
2024-01-06T07:23:36.239Z,4.9708
2024-01-06T07:28:43.032Z,7.0746
2024-01-06T07:33:49.833Z,6.7753
2024-01-06T07:38:56.505Z,5.2253
2024-01-06T07:44:03.345Z,4.7232
2024-01-06T07:49:10.331Z,7.5635
2024-01-06T07:54:16.851Z,6.9369
2024-01-06T07:59:23.666Z,7.3527
2024-01-06T08:04:30.573Z,5.4897
2024-01-06T08:09:38.699Z,3.7743
2024-01-06T08:14:43.500Z,8.1406
2024-01-06T08:19:50.157Z,4.3856
2024-01-06T08:24:56.767Z,10.1187
2024-01-06T08:30:03.653Z,4.9606
2024-01-06T08:35:10.324Z,5.0807
2024-01-06T08:40:17.181Z,5.1909
2024-01-06T08:45:24.180Z,5.5434
2024-01-06T08:50:31.138Z,8.5379
2024-01-06T08:55:37.966Z,9.1615
2024-01-06T09:00:44.962Z,5.1625
2024-01-06T09:05:51.762Z,5.7139
2024-01-06T09:10:58.683Z,5.293
2024-01-06T09:16:05.397Z,4.8902
2024-01-06T09:21:12.335Z,5.2132
2024-01-06T09:26:19.008Z,4.9393
2024-01-06T09:31:26.410Z,5.9394
2024-01-06T09:36:33.227Z,8.2821
2024-01-06T09:41:39.961Z,4.723
2024-01-06T09:46:46.582Z,5.6669
2024-01-06T09:51:53.274Z,5.6311
2024-01-06T09:56:59.993Z,7.197
2024-01-06T10:02:06.803Z,9.7877
2024-01-06T10:07:13.530Z,10.3984
2024-01-06T10:12:20.371Z,6.4403
2024-01-06T10:17:27.056Z,8.56
2024-01-06T10:22:33.728Z,10.0392
2024-01-06T10:27:40.485Z,4.2432
2024-01-06T10:32:47.623Z,9.4001
2024-01-06T10:37:53.898Z,4.8109
2024-01-06T10:43:00.744Z,12.5811
2024-01-06T10:48:07.671Z,8.111
2024-01-06T10:53:14.547Z,7.4666
2024-01-06T10:58:21.358Z,8.9478
2024-01-06T11:03:28.285Z,7.9809
2024-01-06T11:08:34.921Z,8.8837
2024-01-06T11:13:41.708Z,7.6592
2024-01-06T11:18:48.445Z,9.6307
2024-01-06T11:23:55.183Z,8.4577
2024-01-06T11:29:01.913Z,7.0586
2024-01-06T11:34:09.112Z,8.0372
2024-01-06T11:39:15.982Z,6.9752
2024-01-06T11:44:22.589Z,9.2726
2024-01-06T11:49:29.146Z,11.4772
2024-01-06T11:54:35.867Z,11.6003
2024-01-06T11:59:42.556Z,16.8053
2024-01-06T12:04:49.484Z,8.4309
2024-01-06T12:09:56.484Z,11.0559
2024-01-06T12:15:03.318Z,9.9108
2024-01-06T12:20:10.370Z,9.5144
2024-01-06T12:25:17.179Z,8.2604
2024-01-06T12:30:24.390Z,8.4626
2024-01-06T12:35:30.881Z,9.5156
2024-01-06T12:40:37.344Z,7.4753
2024-01-06T12:45:43.898Z,6.8831
2024-01-06T12:50:50.788Z,7.4049
2024-01-06T12:55:57.602Z,9.0671
2024-01-06T13:01:04.591Z,7.849
2024-01-06T13:06:11.199Z,8.8228
2024-01-06T13:11:17.816Z,7.5918
2024-01-06T13:16:24.675Z,9.7435
2024-01-06T13:21:30.926Z,8.0051
2024-01-06T13:26:37.472Z,7.4237
2024-01-06T13:31:44.091Z,9.812
2024-01-06T13:36:51.216Z,8.1042
2024-01-06T13:41:59.356Z,11.1803
2024-01-06T13:47:05.750Z,8.187
2024-01-06T13:52:12.555Z,10.3667
2024-01-06T13:57:19.297Z,11.7748
2024-01-06T14:02:26.039Z,9.5702
2024-01-06T14:07:32.701Z,11.3195
2024-01-06T14:12:39.384Z,10.9809
2024-01-06T14:17:46.206Z,11.1604
2024-01-06T14:22:52.773Z,12.5033
2024-01-06T14:27:59.484Z,10.4723
2024-01-06T14:33:06.395Z,10.1337
2024-01-06T14:38:12.848Z,14.2696
2024-01-06T14:43:19.595Z,10.8979
2024-01-06T14:48:26.378Z,12.3783
2024-01-06T14:53:32.855Z,16.5935
2024-01-06T14:58:39.801Z,14.7883
2024-01-06T15:03:46.250Z,17.4342
2024-01-06T15:08:52.615Z,14.0032
2024-01-06T15:13:59.109Z,11.2904
2024-01-06T15:19:06.080Z,10.3061
2024-01-06T15:24:12.823Z,12.0831
2024-01-06T15:29:19.432Z,11.2171
2024-01-06T15:34:26.360Z,12.4166
2024-01-06T15:39:33.038Z,14.3036
2024-01-06T15:44:39.549Z,14.6074
2024-01-06T15:49:46.446Z,16.6381
2024-01-06T15:54:53.055Z,24.3021
2024-01-06T15:59:59.557Z,16.8252
2024-01-06T16:05:06.081Z,14.8057
2024-01-06T16:10:12.681Z,16.6294
2024-01-06T16:15:19.268Z,14.7429
2024-01-06T16:20:26.053Z,19.37
2024-01-06T16:25:32.708Z,17.8819
2024-01-06T16:30:39.380Z,18.3184
2024-01-06T16:35:45.986Z,20.7938
2024-01-06T16:40:52.718Z,15.0925
2024-01-06T16:45:59.329Z,16.8213
2024-01-06T16:51:06.076Z,18.8753
2024-01-06T16:56:12.981Z,17.627
2024-01-06T17:01:21.512Z,13.5366
2024-01-06T17:06:26.319Z,17.1587
2024-01-06T17:11:33.034Z,15.0341
2024-01-06T17:16:39.718Z,14.003
2024-01-06T17:21:46.551Z,13.749
2024-01-06T17:26:53.144Z,15.1689
2024-01-06T17:31:59.751Z,13.3757
2024-01-06T17:37:06.371Z,15.3769
2024-01-06T17:42:13.099Z,13.7877
2024-01-06T17:47:19.826Z,18.3024
2024-01-06T17:52:26.556Z,14.2552
2024-01-06T17:57:33.015Z,13.2537
2024-01-06T18:02:39.988Z,13.8828
2024-01-06T18:07:46.126Z,13.577
2024-01-06T18:12:53.027Z,12.0078
2024-01-06T18:17:59.777Z,11.794
2024-01-06T18:23:06.263Z,14.3821
2024-01-06T18:28:13.083Z,15.1015
2024-01-06T18:33:19.637Z,16.1519
2024-01-06T18:38:26.005Z,13.9969
2024-01-06T18:43:32.695Z,12.3518
2024-01-06T18:48:39.123Z,13.3389
2024-01-06T18:53:45.725Z,12.4269
2024-01-06T18:58:55.149Z,12.4475
2024-01-06T19:03:59.064Z,13.6898
2024-01-06T19:09:05.758Z,13.2898
2024-01-06T19:14:12.295Z,14.0791
2024-01-06T19:19:22.169Z,10.3207
2024-01-06T19:24:32.304Z,12.0602
2024-01-06T19:29:32.190Z,13.1349
2024-01-06T19:34:39.272Z,12.1641
2024-01-06T19:39:45.547Z,11.9851
2024-01-06T19:44:52.390Z,16.5987
2024-01-06T19:49:58.851Z,17.6633
2024-01-06T19:55:05.670Z,14.5765
2024-01-06T20:00:12.477Z,18.7484
2024-01-06T20:05:19.317Z,14.4684
2024-01-06T20:10:26.157Z,10.7335
2024-01-06T20:15:33.031Z,10.5722
2024-01-06T20:20:39.660Z,11.6558
2024-01-06T20:25:46.337Z,13.9195
2024-01-06T20:30:52.906Z,15.1638
2024-01-06T20:35:59.348Z,16.4182
2024-01-06T20:41:05.967Z,15.3041
2024-01-06T20:46:12.846Z,15.7447
2024-01-06T20:51:19.630Z,17.6129
2024-01-06T20:56:26.197Z,16.1329
2024-01-06T21:01:33.049Z,17.8999
2024-01-06T21:06:39.632Z,18.6365
2024-01-06T21:11:46.080Z,15.2256
2024-01-06T21:16:52.795Z,16.1078
2024-01-06T21:21:59.423Z,17.6435
2024-01-06T21:27:05.831Z,19.529
2024-01-06T21:32:12.665Z,18.7429
2024-01-06T21:37:19.322Z,19.1601
2024-01-06T21:42:26.108Z,17.7949
2024-01-06T21:47:32.763Z,20.0432
2024-01-06T21:52:41.078Z,18.5876
2024-01-06T21:57:46.119Z,19.7986
2024-01-06T22:02:53.024Z,19.0933
2024-01-06T22:07:59.554Z,19.9077
2024-01-06T22:13:06.427Z,21.1099
2024-01-06T22:18:13.182Z,18.0936
2024-01-06T22:23:19.673Z,15.5183
2024-01-06T22:28:26.760Z,13.8433
2024-01-06T22:33:33.363Z,17.4781
2024-01-06T22:38:48.546Z,15.3209
2024-01-06T22:43:46.526Z,15.087
2024-01-06T22:48:53.233Z,12.3619
2024-01-06T22:53:59.654Z,12.9517
2024-01-06T22:59:06.130Z,11.4209
2024-01-06T23:04:12.814Z,14.5306
2024-01-06T23:09:19.726Z,14.6965
2024-01-06T23:14:26.224Z,14.3828
2024-01-06T23:19:33.136Z,15.188
2024-01-06T23:24:39.748Z,15.3945
2024-01-06T23:29:46.601Z,14.3671
2024-01-06T23:34:53.413Z,13.5882
2024-01-06T23:39:59.840Z,14.6304
2024-01-06T23:45:06.578Z,22.7068
2024-01-06T23:50:13.301Z,14.8256
2024-01-06T23:55:19.920Z,14.0658
